Time;durP1;ratioP1;P1;durP2;ratioP2;P2;SDS_P1;SDS_P2;PMS_P1;PMS_P2;Temp;Humidity;BMP_temperature;BMP_pressure;BME280_temperature;BME280_humidity;BME280_pressure;Samples;Min_cycle;Max_cycle;Signal;HPM_P1;HPM_P2
2022/07/10 00:00:03;;;;;;;4.45;2.88;;;;;;;15.96;69.59;96659.31;2026412;29;20051;-45
2022/07/10 00:01:13;;;;;;;5.32;2.97;;;;;;;15.90;70.00;96659.66;2033648;29;20510;-44
2022/07/10 00:02:14;;;;;;;4.45;2.72;;;;;;;15.88;70.23;96657.16;2024627;29;20059;-47
2022/07/10 00:03:15;;;;;;;5.78;3.00;;;;;;;15.88;70.02;96656.31;2009417;29;20076;-42
2022/07/10 00:04:18;;;;;;;3.83;2.90;;;;;;;15.84;70.60;96660.88;2024280;29;20058;-43
2022/07/10 00:05:20;;;;;;;3.38;2.83;;;;;;;15.82;71.65;96654.03;2032746;29;20059;-44
2022/07/10 00:06:21;;;;;;;4.05;3.10;;;;;;;15.77;71.55;96661.31;2024787;29;20048;-45
2022/07/10 00:07:22;;;;;;;4.63;3.25;;;;;;;15.73;71.51;96659.81;2016989;29;20057;-43
2022/07/10 00:08:23;;;;;;;4.43;3.53;;;;;;;15.71;71.33;96665.13;2010192;29;20124;-43
2022/07/10 00:09:25;;;;;;;5.00;3.22;;;;;;;15.70;72.51;96667.84;2025172;29;20052;-43
2022/07/10 00:10:28;;;;;;;4.13;3.30;;;;;;;15.62;72.14;96661.22;2032346;29;20044;-43
2022/07/10 00:11:29;;;;;;;4.68;3.00;;;;;;;15.61;72.99;96659.53;2033921;29;20548;-44
2022/07/10 00:12:30;;;;;;;3.85;3.00;;;;;;;15.49;73.36;96648.91;2024461;29;20052;-44
2022/07/10 00:13:32;;;;;;;3.95;3.10;;;;;;;15.41;73.37;96652.81;2017540;29;20059;-44
2022/07/10 00:14:33;;;;;;;9.85;3.92;;;;;;;15.39;74.08;96652.03;2024869;29;20075;-44
2022/07/10 00:15:34;;;;;;;4.53;3.65;;;;;;;15.26;74.27;96658.03;2024921;29;20048;-43
2022/07/10 00:16:36;;;;;;;4.90;3.60;;;;;;;15.19;76.20;96657.56;2032363;29;20066;-46
2022/07/10 00:17:39;;;;;;;4.90;3.40;;;;;;;15.05;76.43;96655.69;2024999;29;20044;-42
2022/07/10 00:18:40;;;;;;;6.03;4.15;;;;;;;15.01;77.61;96648.94;2009724;29;20045;-44
2022/07/10 00:19:41;;;;;;;6.43;3.60;;;;;;;15.13;78.05;96657.88;2017584;29;20045;-47
2022/07/10 00:20:42;;;;;;;6.90;4.30;;;;;;;15.05;77.79;96658.31;2033966;29;20044;-43
2022/07/10 00:21:44;;;;;;;5.55;4.10;;;;;;;14.91;79.76;96658.19;2016998;29;20071;-47
2022/07/10 00:22:45;;;;;;;9.35;4.35;;;;;;;14.75;80.35;96650.34;2016628;29;20060;-43
2022/07/10 00:23:46;;;;;;;7.50;4.45;;;;;;;14.73;80.65;96657.44;2032382;29;20047;-43
2022/07/10 00:24:50;;;;;;;6.35;3.92;;;;;;;14.69;80.93;96655.91;2032540;29;20063;-45
2022/07/10 00:25:51;;;;;;;4.78;4.05;;;;;;;14.69;81.32;96659.34;2031994;29;20425;-43
2022/07/10 00:26:52;;;;;;;6.70;4.25;;;;;;;14.65;80.96;96651.75;2017263;29;20547;-44
2022/07/10 00:27:54;;;;;;;6.38;4.30;;;;;;;14.60;82.21;96652.00;2024651;29;20049;-45
2022/07/10 00:28:55;;;;;;;6.38;4.38;;;;;;;14.58;82.16;96653.00;2024412;29;20511;-44
2022/07/10 00:29:56;;;;;;;8.02;4.70;;;;;;;14.49;82.88;96649.09;2024512;29;20044;-44
2022/07/10 00:30:57;;;;;;;6.55;4.85;;;;;;;14.37;83.66;96647.09;2025086;29;20052;-42
2022/07/10 00:31:59;;;;;;;6.22;4.32;;;;;;;14.30;82.69;96642.19;2016582;29;20052;-44
2022/07/10 00:33:00;;;;;;;5.82;4.53;;;;;;;14.29;83.77;96643.09;2010211;29;20056;-46
2022/07/10 00:34:01;;;;;;;5.93;5.10;;;;;;;14.33;83.63;96642.03;2024682;29;20048;-42
2022/07/10 00:35:04;;;;;;;7.60;5.07;;;;;;;14.38;83.51;96633.97;2024809;29;20060;-44
2022/07/10 00:36:06;;;;;;;6.40;4.88;;;;;;;14.36;84.08;96646.25;2017934;29;20060;-45
2022/07/10 00:37:07;;;;;;;6.22;4.90;;;;;;;14.36;83.89;96637.59;2016510;29;20053;-43
2022/07/10 00:38:09;;;;;;;5.28;4.78;;;;;;;14.46;82.86;96638.78;2017547;29;20539;-45
2022/07/10 00:39:10;;;;;;;5.85;5.00;;;;;;;14.43;82.71;96631.09;2032800;29;20052;-48
2022/07/10 00:40:12;;;;;;;7.18;4.57;;;;;;;14.40;83.01;96637.31;2032916;29;20054;-42
2022/07/10 00:41:13;;;;;;;6.70;5.00;;;;;;;14.39;84.03;96627.81;2032228;29;20043;-42
2022/07/10 00:42:15;;;;;;;8.27;5.05;;;;;;;14.40;84.30;96624.25;2024204;29;20435;-44
2022/07/10 00:43:16;;;;;;;5.78;4.72;;;;;;;14.33;85.24;96628.97;2017769;29;20053;-43
2022/07/10 00:44:17;;;;;;;7.00;5.13;;;;;;;14.22;84.82;96630.44;2008936;29;20068;-44
2022/07/10 00:45:18;;;;;;;7.03;5.50;;;;;;;14.17;85.39;96622.03;2009285;29;20057;-46
2022/07/10 00:46:20;;;;;;;9.38;5.05;;;;;;;14.16;85.75;96626.38;2024582;29;20063;-43
2022/07/10 00:47:21;;;;;;;6.85;4.78;;;;;;;14.12;85.61;96627.47;2024026;29;20059;-44
2022/07/10 00:48:22;;;;;;;7.88;5.45;;;;;;;14.14;86.80;96620.41;2032583;29;20103;-42
2022/07/10 00:49:24;;;;;;;6.80;5.10;;;;;;;14.16;86.57;96620.31;2024538;29;20056;-43
2022/07/10 00:50:25;;;;;;;6.60;5.13;;;;;;;14.19;86.50;96617.53;2017031;29;20497;-45
2022/07/10 00:51:27;;;;;;;6.60;4.93;;;;;;;14.12;85.84;96614.41;2024923;29;20056;-43
2022/07/10 00:52:28;;;;;;;5.93;4.93;;;;;;;14.11;86.56;96616.19;2032182;29;20047;-44
2022/07/10 00:53:30;;;;;;;6.80;4.95;;;;;;;14.07;85.50;96614.63;2032224;29;20055;-46
2022/07/10 00:54:31;;;;;;;6.47;5.07;;;;;;;14.03;85.84;96620.09;2032401;29;20044;-45
2022/07/10 00:55:32;;;;;;;6.15;5.10;;;;;;;13.95;86.84;96614.41;2032433;29;20430;-43
2022/07/10 00:56:33;;;;;;;6.82;5.82;;;;;;;13.90;87.91;96617.28;2032565;29;20127;-44
2022/07/10 00:57:35;;;;;;;8.15;6.07;;;;;;;13.83;88.61;96611.50;2024376;29;20048;-43
2022/07/10 00:58:36;;;;;;;6.32;5.70;;;;;;;13.78;89.31;96610.91;2017269;29;20045;-44
2022/07/10 00:59:37;;;;;;;6.75;6.05;;;;;;;13.78;89.04;96610.06;2016822;29;20064;-43
2022/07/10 01:00:38;;;;;;;7.45;6.10;;;;;;;13.75;88.81;96608.44;2017034;29;20051;-42
2022/07/10 01:01:40;;;;;;;6.95;5.57;;;;;;;13.72;89.31;96615.59;2024854;29;20048;-45
2022/07/10 01:02:42;;;;;;;7.20;6.18;;;;;;;13.66;89.40;96607.16;2024214;29;20630;-46
2022/07/10 01:03:45;;;;;;;7.72;6.15;;;;;;;13.59;89.89;96612.75;2024296;29;20530;-47
2022/07/10 01:04:47;;;;;;;7.85;6.10;;;;;;;13.53;90.36;96606.06;2025063;29;20049;-44
2022/07/10 01:05:48;;;;;;;7.15;6.20;;;;;;;13.46;90.24;96605.50;2032334;29;20109;-44
2022/07/10 01:06:49;;;;;;;6.85;5.82;;;;;;;13.46;90.51;96605.50;2032335;29;20597;-43
2022/07/10 01:07:50;;;;;;;8.90;6.13;;;;;;;13.49;91.03;96614.94;2024594;29;20059;-43
2022/07/10 01:08:51;;;;;;;8.18;6.50;;;;;;;13.49;91.26;96612.34;2032299;29;20051;-46
2022/07/10 01:09:53;;;;;;;7.28;6.47;;;;;;;13.51;91.28;96607.06;2016772;29;20057;-44
2022/07/10 01:10:54;;;;;;;7.70;6.75;;;;;;;13.51;91.29;96604.44;2016824;29;20057;-43
2022/07/10 01:11:56;;;;;;;7.65;6.70;;;;;;;13.44;91.14;96607.38;2032084;29;20442;-43
2022/07/10 01:12:57;;;;;;;7.38;6.20;;;;;;;13.46;91.20;96609.88;2033099;29;20071;-42
2022/07/10 01:13:58;;;;;;;9.30;7.05;;;;;;;13.43;91.46;96604.81;2040210;29;20050;-43
2022/07/10 01:15:00;;;;;;;8.32;6.80;;;;;;;13.43;91.36;96608.25;2016942;29;20051;-46
2022/07/10 01:16:01;;;;;;;7.20;6.38;;;;;;;13.38;91.47;96614.63;2024291;29;20052;-43
2022/07/10 01:17:05;;;;;;;8.45;7.53;;;;;;;13.36;91.72;96603.41;2032598;29;20044;-43
2022/07/10 01:18:06;;;;;;;8.70;7.55;;;;;;;13.35;91.96;96609.56;2040181;29;20048;-43
2022/07/10 01:19:07;;;;;;;7.65;6.85;;;;;;;13.28;92.37;96609.00;2040175;29;20050;-43
2022/07/10 01:20:09;;;;;;;9.23;7.18;;;;;;;13.37;92.23;96608.56;2024461;29;20063;-43
2022/07/10 01:21:34;;;;;;;8.57;7.30;;;;;;;13.43;91.99;96612.66;2016892;29;20052;-44
2022/07/10 01:22:36;;;;;;;8.75;7.22;;;;;;;13.44;91.99;96614.31;2032412;29;20502;-45
2022/07/10 01:23:38;;;;;;;7.85;7.05;;;;;;;13.44;91.75;96614.31;2039431;29;20054;-42
2022/07/10 01:24:39;;;;;;;11.45;7.93;;;;;;;13.48;91.67;96609.81;2032036;29;20059;-42
2022/07/10 01:25:40;;;;;;;10.07;8.32;;;;;;;13.45;92.41;96611.66;2032655;29;20056;-43
2022/07/10 01:26:42;;;;;;;9.95;7.82;;;;;;;13.45;92.85;96609.03;2032144;29;20055;-45
2022/07/10 01:27:43;;;;;;;9.10;7.68;;;;;;;13.42;92.49;96611.81;2016867;29;20052;-43
2022/07/10 01:28:45;;;;;;;9.75;7.72;;;;;;;13.43;92.53;96613.47;2024515;29;20048;-44
2022/07/10 01:29:46;;;;;;;8.52;7.47;;;;;;;13.45;92.62;96602.97;2024439;29;20531;-43
2022/07/10 01:30:48;;;;;;;9.55;7.90;;;;;;;13.51;92.55;96614.88;2024523;29;20052;-44
2022/07/10 01:31:49;;;;;;;9.45;7.90;;;;;;;13.55;92.36;96611.19;2032336;29;20040;-44
2022/07/10 01:32:51;;;;;;;8.98;7.68;;;;;;;13.55;92.19;96608.56;2032466;29;20649;-47
2022/07/10 01:33:53;;;;;;;9.75;7.90;;;;;;;13.55;92.32;96612.06;2017056;29;20052;-44
2022/07/10 01:34:55;;;;;;;11.75;7.90;;;;;;;13.58;92.39;96605.81;2031878;29;20445;-45
2022/07/10 01:35:56;;;;;;;8.25;7.40;;;;;;;13.61;92.36;96609.13;2024920;29;20052;-43
2022/07/10 01:36:57;;;;;;;8.10;6.72;;;;;;;13.65;91.97;96607.19;2032203;29;20063;-43
2022/07/10 01:37:58;;;;;;;11.18;7.97;;;;;;;13.64;91.74;96608.97;2039150;29;20047;-42
2022/07/10 01:39:00;;;;;;;10.88;7.10;;;;;;;13.65;91.71;96607.19;2039724;29;20043;-43
2022/07/10 01:40:01;;;;;;;9.00;7.72;;;;;;;13.66;91.69;96609.75;2024498;29;20060;-46
2022/07/10 01:41:02;;;;;;;10.02;7.70;;;;;;;13.57;91.60;96591.09;2018404;29;20059;-43
2022/07/10 01:42:04;;;;;;;11.15;7.90;;;;;;;13.73;91.27;96609.44;2033619;29;20052;-44
2022/07/10 01:43:05;;;;;;;9.68;7.60;;;;;;;13.71;90.87;96609.50;2025625;29;20044;-46
2022/07/10 01:44:06;;;;;;;9.23;7.90;;;;;;;13.70;91.69;96612.19;2025917;29;20060;-42
2022/07/10 01:45:08;;;;;;;9.20;7.93;;;;;;;13.65;92.47;96607.19;2025883;29;20048;-44
2022/07/10 01:46:10;;;;;;;9.90;8.40;;;;;;;13.62;92.51;96610.81;2034060;29;20444;-44
2022/07/10 01:47:12;;;;;;;8.80;7.93;;;;;;;13.64;92.56;96611.59;2033386;29;20052;-44
2022/07/10 01:48:13;;;;;;;10.65;8.55;;;;;;;13.60;92.83;96606.59;2025383;29;20049;-43
2022/07/10 01:49:14;;;;;;;9.70;7.28;;;;;;;13.58;92.79;96609.28;2025988;29;20059;-43
2022/07/10 01:50:15;;;;;;;9.15;8.20;;;;;;;13.55;92.70;96601.63;2025345;29;20052;-45
2022/07/10 01:51:17;;;;;;;9.50;7.60;;;;;;;13.53;92.20;96610.44;2033553;29;20063;-43
2022/07/10 01:52:18;;;;;;;9.70;7.53;;;;;;;13.50;92.36;96605.34;2025494;29;20063;-44
2022/07/10 01:53:19;;;;;;;8.70;7.80;;;;;;;13.49;92.14;96607.13;2025774;29;20411;-44
2022/07/10 01:54:20;;;;;;;9.27;8.05;;;;;;;13.43;92.67;96610.03;2018424;29;20049;-44
2022/07/10 01:55:22;;;;;;;12.98;8.52;;;;;;;13.40;92.77;96613.63;2034093;29;20059;-46
2022/07/10 01:56:23;;;;;;;9.73;7.80;;;;;;;13.37;92.76;96608.56;2033707;29;20437;-43
2022/07/10 01:57:24;;;;;;;9.90;8.00;;;;;;;13.37;93.09;96607.72;2025668;29;20049;-43
2022/07/10 01:58:25;;;;;;;8.52;7.57;;;;;;;13.32;92.66;96609.72;2033220;29;20063;-42
2022/07/10 01:59:27;;;;;;;11.23;8.30;;;;;;;13.27;93.27;96612.53;2033707;29;20055;-42
2022/07/10 02:00:28;;;;;;;9.93;8.23;;;;;;;13.29;93.42;96615.09;2026083;29;20067;-46
2022/07/10 02:01:30;;;;;;;10.23;8.88;;;;;;;13.24;93.48;96613.50;2033670;29;20047;-43
2022/07/10 02:02:31;;;;;;;11.15;8.55;;;;;;;13.22;93.64;96611.88;2041317;29;20068;-43
2022/07/10 02:04:52;;;;;;;9.13;8.20;;;;;;;13.10;93.73;96607.25;2025853;29;20437;-45
2022/07/10 02:05:54;;;;;;;11.15;8.82;;;;;;;13.12;93.51;96608.00;2028307;29;20052;-43
2022/07/10 02:06:55;;;;;;;10.57;8.00;;;;;;;13.07;93.30;96604.78;2033364;29;20059;-44
2022/07/10 02:07:56;;;;;;;8.65;7.75;;;;;;;13.08;93.04;96607.31;2033301;29;20056;-46
2022/07/10 02:08:57;;;;;;;9.32;8.15;;;;;;;13.00;93.18;96606.84;2017895;29;20059;-42
2022/07/10 02:09:58;;;;;;;10.20;8.90;;;;;;;12.98;93.72;96604.28;2018565;29;20041;-44
2022/07/10 02:11:00;;;;;;;10.65;8.00;;;;;;;12.92;94.27;96606.38;2026148;29;20434;-43
2022/07/10 02:12:01;;;;;;;10.30;7.50;;;;;;;12.99;94.13;96608.63;2025688;29;20052;-43
2022/07/10 02:13:02;;;;;;;11.23;8.63;;;;;;;12.92;93.93;96602.00;2033006;29;20549;-46
2022/07/10 02:14:04;;;;;;;9.77;8.50;;;;;;;12.87;94.44;96605.72;2033473;29;20044;-42
2022/07/10 02:15:05;;;;;;;11.30;8.75;;;;;;;12.90;94.46;96602.97;2025496;29;20048;-43
2022/07/10 02:16:07;;;;;;;9.80;8.75;;;;;;;12.79;94.44;96596.50;2018467;29;20407;-43
2022/07/10 02:17:08;;;;;;;9.32;8.02;;;;;;;12.76;94.44;96601.00;2025970;29;20056;-43
2022/07/10 02:18:09;;;;;;;9.63;8.60;;;;;;;12.72;95.15;96599.44;2026356;29;20052;-43
2022/07/10 02:19:11;;;;;;;10.48;8.05;;;;;;;12.65;95.04;96601.50;2026285;29;20527;-46
2022/07/10 02:20:12;;;;;;;12.75;9.50;;;;;;;12.68;94.92;96603.97;2025811;29;20057;-43
2022/07/10 02:21:14;;;;;;;11.48;8.75;;;;;;;12.66;95.34;96602.34;2025674;29;20060;-42
2022/07/10 02:22:15;;;;;;;11.55;9.95;;;;;;;12.64;95.67;96601.56;2025262;29;20538;-46
2022/07/10 02:23:16;;;;;;;10.00;8.95;;;;;;;12.61;95.61;96604.31;2025610;29;20044;-44
2022/07/10 02:24:17;;;;;;;12.27;9.75;;;;;;;12.56;96.37;96597.56;2010212;29;20057;-43
2022/07/10 02:25:18;;;;;;;12.23;9.15;;;;;;;12.52;95.97;96592.56;2017632;29;20076;-42
2022/07/10 02:26:20;;;;;;;12.35;9.20;;;;;;;12.47;96.36;96592.75;2025856;29;20048;-43
2022/07/10 02:27:22;;;;;;;13.10;8.60;;;;;;;12.49;96.17;96590.94;2025600;29;20128;-45
2022/07/10 02:28:23;;;;;;;10.95;9.07;;;;;;;12.48;95.84;96594.47;2033595;29;20051;-44
2022/07/10 02:29:24;;;;;;;10.93;9.40;;;;;;;12.47;96.03;96595.38;2017400;29;20447;-43
2022/07/10 02:30:26;;;;;;;14.23;9.75;;;;;;;12.45;96.29;96598.94;2018093;29;20049;-45
2022/07/10 02:31:27;;;;;;;13.15;9.95;;;;;;;12.41;96.70;96600.03;2025618;29;20055;-46
2022/07/10 02:32:28;;;;;;;12.85;8.80;;;;;;;12.39;96.33;96601.84;2032844;29;20122;-43
2022/07/10 02:33:29;;;;;;;12.43;10.07;;;;;;;12.42;96.55;96599.94;2025566;29;20427;-44
2022/07/10 02:34:31;;;;;;;11.48;10.07;;;;;;;12.42;96.36;96604.31;2025449;29;20067;-43
2022/07/10 02:35:32;;;;;;;13.02;9.88;;;;;;;12.41;96.51;96602.63;2033318;29;20051;-44
2022/07/10 02:36:34;;;;;;;13.15;11.32;;;;;;;12.39;96.34;96607.03;2025481;29;20048;-43
2022/07/10 02:37:35;;;;;;;13.80;11.45;;;;;;;12.37;97.30;96604.50;2018377;29;20045;-43
2022/07/10 02:38:36;;;;;;;13.77;11.23;;;;;;;12.35;96.92;96601.13;2017734;29;20048;-43
2022/07/10 02:39:37;;;;;;;16.42;11.73;;;;;;;12.34;97.41;96605.47;2017855;29;20503;-44
2022/07/10 02:40:38;;;;;;;17.00;12.57;;;;;;;12.32;97.11;96612.53;2033601;29;20533;-42
2022/07/10 02:41:42;;;;;;;15.57;11.85;;;;;;;12.34;97.07;96605.47;2026068;29;20048;-46
2022/07/10 02:42:43;;;;;;;15.50;11.48;;;;;;;12.35;97.50;96607.19;2026249;29;20055;-43
2022/07/10 02:43:44;;;;;;;16.13;11.60;;;;;;;12.38;97.77;96610.56;2032914;29;20051;-44
2022/07/10 02:44:45;;;;;;;11.50;10.30;;;;;;;12.40;97.68;96599.16;2032786;29;20080;-43
2022/07/10 02:45:46;;;;;;;13.40;10.75;;;;;;;12.44;97.52;96607.69;2032755;29;20052;-43
2022/07/10 02:46:48;;;;;;;13.00;10.98;;;;;;;12.46;97.02;96601.50;2033351;29;20057;-42
2022/07/10 02:47:49;;;;;;;12.68;10.75;;;;;;;12.45;97.14;96602.41;2025086;29;20522;-43
2022/07/10 02:48:50;;;;;;;11.82;10.63;;;;;;;12.44;96.81;96611.13;2032999;29;20048;-46
2022/07/10 02:49:51;;;;;;;17.88;10.95;;;;;;;12.42;96.69;96610.34;2033736;29;20064;-43
2022/07/10 02:50:52;;;;;;;12.73;10.00;;;;;;;12.43;97.21;96611.19;2025785;29;20415;-44
2022/07/10 02:51:54;;;;;;;12.50;11.20;;;;;;;12.42;97.60;96605.13;2009133;29;20562;-42
2022/07/10 02:52:55;;;;;;;11.63;10.20;;;;;;;12.41;97.73;96606.06;2010387;29;20057;-43
2022/07/10 02:53:56;;;;;;;12.85;10.95;;;;;;;12.39;97.05;96607.03;2018063;29;20060;-45
2022/07/10 02:54:58;;;;;;;12.65;10.18;;;;;;;12.41;97.25;96598.25;2017660;29;20523;-41
2022/07/10 02:55:59;;;;;;;12.00;10.68;;;;;;;12.38;97.69;96601.00;2025198;29;20518;-43
2022/07/10 02:57:00;;;;;;;11.90;10.00;;;;;;;12.40;97.03;96598.31;2041033;29;20449;-41
2022/07/10 02:58:01;;;;;;;12.70;9.32;;;;;;;12.43;96.92;96598.16;2033079;29;20439;-44
2022/07/10 02:59:03;;;;;;;11.38;9.68;;;;;;;12.44;97.19;96592.06;2025172;29;20060;-45
2022/07/10 03:00:04;;;;;;;10.35;9.25;;;;;;;12.45;96.63;96589.38;2017771;29;20060;-43
2022/07/10 03:01:06;;;;;;;14.32;9.80;;;;;;;12.42;96.67;96591.28;2017795;29;20052;-42
2022/07/10 03:02:07;;;;;;;10.90;9.80;;;;;;;12.37;96.77;96588.88;2015726;29;20056;-42
2022/07/10 03:03:08;;;;;;;12.77;9.85;;;;;;;12.36;97.12;96582.00;2033439;29;20059;-43
2022/07/10 03:04:10;;;;;;;10.23;8.98;;;;;;;12.41;96.89;96587.84;2033021;29;20055;-43
2022/07/10 03:05:11;;;;;;;11.55;9.98;;;;;;;12.36;97.22;96584.59;2025173;29;20060;-43
2022/07/10 03:06:12;;;;;;;13.35;10.23;;;;;;;12.31;96.72;96589.16;2017833;29;20542;-43
2022/07/10 03:07:13;;;;;;;14.25;10.73;;;;;;;12.25;97.41;96592.88;2024800;29;20057;-43
2022/07/10 03:08:15;;;;;;;14.10;11.88;;;;;;;12.18;97.53;96586.25;2025174;29;20058;-43
2022/07/10 03:09:16;;;;;;;13.30;11.68;;;;;;;12.12;97.49;96589.13;2017283;29;20052;-44
2022/07/10 03:10:17;;;;;;;14.18;12.55;;;;;;;12.09;97.82;96590.09;2025329;29;20051;-45
2022/07/10 03:11:18;;;;;;;15.02;12.02;;;;;;;12.03;97.79;96590.38;2017912;29;20108;-43
2022/07/10 03:12:20;;;;;;;12.88;10.93;;;;;;;12.00;97.92;96590.53;2010275;29;20543;-43
2022/07/10 03:13:21;;;;;;;14.05;11.85;;;;;;;12.01;98.73;96589.59;2025111;29;20063;-42
2022/07/10 03:14:22;;;;;;;14.32;10.95;;;;;;;12.02;98.41;96590.44;2025236;29;20525;-43
2022/07/10 03:15:24;;;;;;;13.40;11.95;;;;;;;12.02;98.27;96599.09;2025264;29;20055;-43
2022/07/10 03:16:25;;;;;;;16.90;12.32;;;;;;;12.03;98.81;96597.31;2017217;29;20048;-42
2022/07/10 03:17:26;;;;;;;18.48;12.73;;;;;;;12.00;98.75;96598.31;2009587;29;20065;-43
2022/07/10 03:18:27;;;;;;;15.57;11.43;;;;;;;12.01;98.81;96602.63;2017809;29;20052;-43
2022/07/10 03:19:28;;;;;;;14.30;11.82;;;;;;;12.00;99.35;96600.94;2025334;29;20059;-43
2022/07/10 03:20:30;;;;;;;15.82;11.68;;;;;;;12.09;98.53;96604.88;2024941;29;20542;-46
2022/07/10 03:21:31;;;;;;;14.18;11.02;;;;;;;12.05;98.61;96604.16;2025189;29;20561;-42
2022/07/10 03:22:32;;;;;;;13.35;10.45;;;;;;;12.08;98.08;96603.19;2025171;29;20055;-43
2022/07/10 03:23:34;;;;;;;13.10;11.57;;;;;;;12.14;98.16;96608.97;2024710;29;20053;-45
2022/07/10 03:24:35;;;;;;;14.45;11.10;;;;;;;12.09;98.06;96603.13;2025385;29;20057;-43
2022/07/10 03:25:36;;;;;;;14.70;11.15;;;;;;;12.09;98.15;96599.69;2025232;29;20051;-43
2022/07/10 03:26:37;;;;;;;12.98;10.30;;;;;;;12.09;98.11;96607.50;2025357;29;20048;-43
2022/07/10 03:27:39;;;;;;;14.05;10.98;;;;;;;12.08;97.28;96611.84;2017387;29;20060;-43
2022/07/10 03:28:40;;;;;;;11.48;10.25;;;;;;;12.14;97.54;96606.38;2017697;29;20159;-43
2022/07/10 03:29:42;;;;;;;12.50;10.57;;;;;;;12.07;97.53;96610.16;2009258;29;20052;-45
2022/07/10 03:30:43;;;;;;;12.70;10.68;;;;;;;12.05;97.50;96609.34;2010400;29;20053;-43
2022/07/10 03:31:44;;;;;;;14.30;10.70;;;;;;;12.10;97.31;96606.56;2032975;29;20122;-45
2022/07/10 03:32:46;;;;;;;13.63;12.13;;;;;;;12.11;97.01;96608.28;2032997;29;20412;-43
2022/07/10 03:33:47;;;;;;;16.98;11.65;;;;;;;12.07;97.35;96604.94;2025736;29;20063;-43
2022/07/10 03:34:48;;;;;;;12.23;11.02;;;;;;;11.95;97.95;96602.88;2025154;29;20057;-44
2022/07/10 03:35:49;;;;;;;14.88;11.45;;;;;;;12.05;97.88;96605.91;2009179;29;20057;-42
2022/07/10 03:36:51;;;;;;;12.30;10.55;;;;;;;12.11;98.06;96610.88;2017672;29;20057;-44
2022/07/10 03:37:52;;;;;;;12.60;10.77;;;;;;;12.22;97.46;96610.41;2017473;29;20056;-46
2022/07/10 03:38:53;;;;;;;13.15;11.32;;;;;;;12.16;97.59;96608.06;2025230;29;20534;-43
2022/07/10 03:39:55;;;;;;;15.75;12.20;;;;;;;12.20;97.27;96604.41;2024866;29;20044;-45
2022/07/10 03:40:56;;;;;;;14.65;12.15;;;;;;;12.16;96.88;96601.09;2010088;29;20531;-43
2022/07/10 03:41:57;;;;;;;13.40;11.98;;;;;;;12.26;96.46;96602.38;2016970;29;20072;-42
2022/07/10 03:42:58;;;;;;;14.57;11.75;;;;;;;12.19;96.94;96593.16;2024986;29;20051;-46
2022/07/10 03:44:00;;;;;;;11.90;10.68;;;;;;;12.27;96.69;96604.09;2032848;29;20052;-43
2022/07/10 03:45:01;;;;;;;16.55;12.45;;;;;;;12.29;96.30;96606.59;2025325;29;20092;-43
2022/07/10 03:46:02;;;;;;;13.65;11.65;;;;;;;12.27;96.56;96603.22;2024752;29;20052;-43
2022/07/10 03:47:04;;;;;;;12.90;11.18;;;;;;;12.31;95.90;96610.81;2032163;29;20052;-42
2022/07/10 03:48:05;;;;;;;13.30;11.07;;;;;;;12.32;96.13;96603.84;2017243;29;20057;-43
2022/07/10 03:49:06;;;;;;;15.25;12.15;;;;;;;12.30;95.84;96608.31;2017042;29;20057;-43
2022/07/10 03:50:09;;;;;;;15.05;11.80;;;;;;;12.29;95.85;96607.44;2032810;29;20059;-41
2022/07/10 03:51:10;;;;;;;13.82;11.48;;;;;;;12.32;95.70;96603.84;2032327;29;20446;-43
2022/07/10 03:52:11;;;;;;;15.70;11.45;;;;;;;12.34;95.69;96609.84;2033866;29;20414;-44
2022/07/10 03:53:13;;;;;;;12.55;10.93;;;;;;;12.33;95.57;96609.00;2040975;29;20048;-43
2022/07/10 03:54:14;;;;;;;15.13;11.23;;;;;;;12.33;95.95;96603.81;2025303;29;20056;-44
2022/07/10 03:55:15;;;;;;;13.88;12.10;;;;;;;12.32;95.83;96603.84;2024969;29;20059;-44
2022/07/10 03:58:57;;;;;;;13.57;11.70;;;;;;;12.35;95.48;96604.59;2035020;29;20051;-44
2022/07/10 03:59:59;;;;;;;15.82;11.55;;;;;;;12.35;95.70;96603.75;2032740;29;20056;-43
2022/07/10 04:01:00;;;;;;;14.68;12.52;;;;;;;12.36;95.54;96600.22;2032227;29;20056;-44
2022/07/10 04:02:01;;;;;;;13.32;10.73;;;;;;;12.33;95.56;96598.59;2033083;29;20056;-43
2022/07/10 04:03:05;;;;;;;12.80;10.77;;;;;;;12.33;95.93;96598.59;2031757;29;20055;-44
2022/07/10 04:04:06;;;;;;;15.23;12.05;;;;;;;12.35;95.61;96601.13;2017229;29;20067;-45
2022/07/10 04:05:08;;;;;;;12.93;11.40;;;;;;;12.33;95.45;96593.38;2017337;29;20052;-45
2022/07/10 04:06:09;;;;;;;15.63;11.70;;;;;;;12.34;95.37;96595.06;2024992;29;20048;-43
2022/07/10 04:07:12;;;;;;;12.85;11.48;;;;;;;12.36;95.20;96595.84;2032158;29;20059;-45
2022/07/10 04:08:13;;;;;;;14.05;12.15;;;;;;;12.35;95.57;96591.56;2032509;29;20055;-43
2022/07/10 04:09:14;;;;;;;12.85;11.48;;;;;;;12.34;95.14;96584.66;2025196;29;20056;-44
2022/07/10 04:10:16;;;;;;;14.00;12.02;;;;;;;12.35;95.41;96593.31;2024571;29;20063;-45
2022/07/10 04:11:17;;;;;;;14.70;11.57;;;;;;;12.33;94.93;96595.16;2024426;29;20048;-43
2022/07/10 04:12:26;;;;;;;14.07;11.07;;;;;;;12.29;95.69;96597.03;2019143;29;20064;-47
2022/07/10 04:13:28;;;;;;;13.07;11.38;;;;;;;12.28;95.20;96594.50;2022226;29;20060;-41
2022/07/10 04:14:29;;;;;;;15.85;11.40;;;;;;;12.29;95.73;96606.59;2025371;29;20045;-40
2022/07/10 04:15:30;;;;;;;13.70;11.30;;;;;;;12.33;95.56;96598.59;2032353;29;20047;-42
2022/07/10 04:16:31;;;;;;;14.00;11.52;;;;;;;12.40;94.38;96599.16;2048371;29;20051;-41
2022/07/10 04:17:32;;;;;;;13.60;10.95;;;;;;;12.44;94.11;96608.53;2032965;29;20055;-41
2022/07/10 04:18:33;;;;;;;14.93;11.43;;;;;;;12.46;93.93;96601.50;2017093;29;20045;-42
2022/07/10 04:19:35;;;;;;;12.80;10.98;;;;;;;12.51;94.49;96603.88;2025116;29;20059;-42
2022/07/10 04:20:36;;;;;;;14.48;11.90;;;;;;;12.51;94.23;96601.28;2032745;29;20147;-40
2022/07/10 04:21:37;;;;;;;12.95;11.05;;;;;;;12.58;93.72;96605.28;2025188;29;20040;-39
2022/07/10 04:22:38;;;;;;;12.93;10.95;;;;;;;12.61;93.75;96609.53;2024932;29;20150;-41
2022/07/10 04:23:40;;;;;;;14.68;11.00;;;;;;;12.68;93.84;96608.34;2032432;29;20044;-41
2022/07/10 04:24:41;;;;;;;12.93;10.93;;;;;;;12.78;93.12;96604.41;2032584;29;20510;-40
2022/07/10 04:25:42;;;;;;;14.77;10.57;;;;;;;12.78;92.58;96607.00;2042769;28;20047;-41
2022/07/10 04:26:44;;;;;;;15.25;10.95;;;;;;;12.79;93.15;96600.88;2040734;29;20051;-40
2022/07/10 04:27:45;;;;;;;12.65;10.80;;;;;;;12.85;92.87;96599.72;2040503;29;20059;-41
2022/07/10 04:28:46;;;;;;;13.73;10.85;;;;;;;12.90;92.77;96598.59;2032761;29;20469;-38
2022/07/10 04:29:48;;;;;;;12.05;10.10;;;;;;;12.96;92.35;96600.94;2024872;29;20052;-41
2022/07/10 04:30:49;;;;;;;11.60;10.07;;;;;;;13.04;91.53;96600.56;2039928;29;20048;-42
2022/07/10 04:31:50;;;;;;;15.55;10.38;;;;;;;13.05;91.60;96604.03;2029231;29;20548;-41
2022/07/10 04:32:51;;;;;;;14.15;10.13;;;;;;;13.05;91.41;96596.22;2024596;29;20053;-41
2022/07/10 04:33:52;;;;;;;15.32;10.35;;;;;;;13.09;91.03;96605.56;2032432;29;20047;-42
2022/07/10 04:34:55;;;;;;;14.27;10.27;;;;;;;13.11;90.58;96598.50;2032969;29;20048;-42
2022/07/10 04:35:56;;;;;;;11.65;9.75;;;;;;;13.18;90.39;96594.72;2039948;29;20533;-40
2022/07/10 04:36:58;;;;;;;15.23;10.98;;;;;;;13.18;89.97;96607.75;2040610;29;20045;-40
2022/07/10 04:37:59;;;;;;;13.77;10.48;;;;;;;13.18;89.85;96603.38;2048487;29;20050;-41
2022/07/10 04:39:00;;;;;;;14.70;10.45;;;;;;;13.22;90.34;96607.50;2040567;29;20485;-40
2022/07/10 04:40:02;;;;;;;13.90;10.32;;;;;;;13.25;89.99;96615.16;2032474;29;20051;-41
2022/07/10 04:41:03;;;;;;;11.50;9.98;;;;;;;13.28;89.93;96615.97;2040126;29;20051;-44
2022/07/10 04:42:06;;;;;;;12.25;10.35;;;;;;;13.22;89.35;96612.72;2032683;29;20051;-41
2022/07/10 04:43:07;;;;;;;13.45;9.90;;;;;;;13.31;89.24;96613.22;2032226;29;20056;-42
2022/07/10 04:44:08;;;;;;;11.93;9.77;;;;;;;13.37;89.16;96613.78;2032387;29;20091;-40
2022/07/10 04:45:09;;;;;;;11.82;9.73;;;;;;;13.35;89.30;96612.16;2024761;29;20052;-41
2022/07/10 04:46:11;;;;;;;13.57;9.63;;;;;;;13.41;88.59;96604.88;2024796;29;20049;-39
2022/07/10 04:47:12;;;;;;;11.70;9.65;;;;;;;13.43;88.75;96618.69;2024849;29;20064;-41
2022/07/10 04:48:13;;;;;;;14.73;9.73;;;;;;;13.44;88.98;96609.97;2032709;29;20043;-40
2022/07/10 04:49:14;;;;;;;13.48;10.50;;;;;;;13.45;89.14;96606.44;2032480;29;20078;-40